首页
METAR-TAF:

METAR-TAF

机场 :

吉布提-安布利国际机场

吉布地, 吉布提

纬度: 11-33N, 经度: 043-10E, 海拔: 49米

当前天气观测

该预报发布于49分钟前的10:00 UTC
风速6节,风向北转西北
温度 45°C
湿度 31%
气压 1003 hPa
能見度: 6000
少量云层高于2300英尺
散云层高于13300英尺
霾,

METAR: HDAM 211000Z 33006KT 6000 HZ FEW023 SCT133 45/24 Q1003

时间: 13:49 (10:49 UTC)

预报

该预报发布于5小时和49分钟前的05:00 UTC
预报有效从21日的 06点(UTC)到 22日的 06点(UTC)
风速15节,风向西,有时为25节阵风
能見度: 8000
散云层高于13300英尺
成为
从 21日的 15点(UTC)到 21日的 18点(UTC)
风速6节,风向东转东北
能見度: 9000
少量云层高于13300英尺
成为
从 21日的 21点(UTC)到 22日的 00点(UTC)
风速7节,风向
能見度: 9000
少量云层高于13300英尺
成为
从 22日的 00点(UTC)到 22日的 06点(UTC)
风速12节,风向西转西南
能見度: 8000
散云层高于13300英尺
霾,

TAF: HDAM 210500Z 2106/2206 27015G25KT 8000 HZ SCT133 BECMG 2115/2118 07006KT 9000 HZ FEW133 BECMG 2121/2200 19007KT 9000 HZ FEW133 BECMG 2200/2206 24012KT 8000 HZ SCT133

超过4000个机场的气象观测和天气预报(METAR&TAF报告)。

可查询的气象台以黄色和红色小点在地图上表示。

将鼠标移到小点上方,可查看气象台名称。

然后点击查看天气观测和预报。

如需切换地图:点击带黑十字的绿色按钮放大地图;点击带横线的绿色按钮缩小地图;或者点击绿色箭头查看邻近地区的地图。


METAR-TAF: